Time;durP1;ratioP1;P1;durP2;ratioP2;P2;SDS_P1;SDS_P2;PMS_P1;PMS_P2;Temp;Humidity;BMP_temperature;BMP_pressure;BME280_temperature;BME280_humidity;BME280_pressure;Samples;Min_cycle;Max_cycle;Signal;HPM_P1;HPM_P2
2022/02/22 00:01:31;;;;;;;9.80;2.50;;;4.60;99.90;;;;;;2622529;46;20058;31
2022/02/22 00:04:07;;;;;;;6.35;1.85;;;4.50;99.90;;;;;;2603969;54;20865;31
2022/02/22 00:06:44;;;;;;;6.30;1.50;;;4.60;99.90;;;;;;2603755;54;20046;31
2022/02/22 00:09:17;;;;;;;5.60;1.95;;;4.50;99.90;;;;;;2702467;39;21102;31
2022/02/22 00:11:50;;;;;;;4.97;1.63;;;4.40;99.90;;;;;;2603599;54;20072;31
2022/02/22 00:14:27;;;;;;;2.50;1.25;;;4.40;99.90;;;;;;2604161;54;20061;31
2022/02/22 00:17:02;;;;;;;5.03;1.30;;;4.40;99.90;;;;;;2602926;54;20901;31
2022/02/22 00:19:37;;;;;;;4.95;1.27;;;4.40;99.90;;;;;;2603607;54;20060;31
2022/02/22 00:22:15;;;;;;;7.00;1.90;;;4.40;99.90;;;;;;2603867;54;20030;31
2022/02/22 00:24:51;;;;;;;5.55;1.60;;;4.40;99.90;;;;;;2604017;54;20893;31
2022/02/22 00:27:26;;;;;;;3.40;1.23;;;4.40;99.90;;;;;;2621432;46;20033;31
2022/02/22 00:30:00;;;;;;;1.37;0.93;;;4.30;99.90;;;;;;2603134;54;20814;31
2022/02/22 00:32:35;;;;;;;4.03;1.13;;;4.30;99.90;;;;;;2622064;46;20616;31
2022/02/22 00:35:09;;;;;;;2.15;0.80;;;4.30;99.90;;;;;;2603810;54;20042;31
2022/02/22 00:37:44;;;;;;;2.13;0.65;;;4.30;99.90;;;;;;2702440;39;21054;31
2022/02/22 00:40:18;;;;;;;2.08;0.70;;;4.30;99.90;;;;;;2603918;54;20046;31
2022/02/22 00:42:53;;;;;;;3.30;1.20;;;4.30;99.90;;;;;;2603564;54;20033;31
2022/02/22 00:45:28;;;;;;;3.90;1.20;;;4.20;99.90;;;;;;2603800;54;20737;31
2022/02/22 00:48:02;;;;;;;1.10;0.70;;;4.20;99.90;;;;;;2603766;54;20102;31
2022/02/22 00:50:36;;;;;;;4.05;0.90;;;4.10;99.90;;;;;;2603452;54;20591;31
2022/02/22 00:53:14;;;;;;;1.45;0.73;;;4.20;99.90;;;;;;2603457;54;20828;31
2022/02/22 00:55:49;;;;;;;2.40;0.85;;;4.10;99.90;;;;;;2603478;54;20748;31
2022/02/22 00:58:25;;;;;;;1.80;0.90;;;4.10;99.90;;;;;;2603379;54;20829;31
2022/02/22 01:01:01;;;;;;;4.20;1.30;;;4.00;99.90;;;;;;2603300;54;20085;31
2022/02/22 01:03:35;;;;;;;3.92;1.30;;;4.00;99.90;;;;;;2603482;54;21015;31
2022/02/22 01:06:09;;;;;;;5.45;1.52;;;4.00;99.90;;;;;;2603530;54;20076;31
2022/02/22 01:08:47;;;;;;;4.50;1.00;;;4.00;99.90;;;;;;2603468;54;20030;31
2022/02/22 01:11:24;;;;;;;3.42;1.42;;;4.00;99.90;;;;;;2702228;39;20584;31
2022/02/22 01:13:59;;;;;;;3.10;1.10;;;4.10;99.90;;;;;;2773340;31;20445;31
2022/02/22 01:16:33;;;;;;;3.22;0.98;;;4.00;99.90;;;;;;2603697;54;20839;31
2022/02/22 01:19:08;;;;;;;5.10;1.10;;;3.90;99.90;;;;;;2603475;54;20042;31
2022/02/22 01:21:43;;;;;;;7.45;1.90;;;4.00;99.90;;;;;;2701322;39;20592;31
2022/02/22 01:24:21;;;;;;;6.40;1.40;;;3.90;99.90;;;;;;2621869;46;20065;31
2022/02/22 01:26:56;;;;;;;3.60;1.08;;;4.00;99.90;;;;;;2603612;54;20895;31
2022/02/22 01:29:30;;;;;;;6.63;1.20;;;3.90;99.90;;;;;;2603655;54;20146;31
2022/02/22 01:32:05;;;;;;;5.45;1.15;;;3.90;99.90;;;;;;2603316;54;20042;31
2022/02/22 01:34:43;;;;;;;4.90;1.20;;;3.90;99.90;;;;;;2602841;54;20870;31
2022/02/22 01:37:18;;;;;;;8.40;1.65;;;3.90;99.90;;;;;;2603511;54;20027;31
2022/02/22 01:39:56;;;;;;;4.00;1.30;;;3.90;99.90;;;;;;2603592;54;20041;31
2022/02/22 01:42:31;;;;;;;4.85;1.50;;;3.90;99.90;;;;;;2603528;54;20854;31
2022/02/22 01:45:07;;;;;;;3.58;1.00;;;4.00;99.90;;;;;;2603361;54;20893;31
2022/02/22 01:47:44;;;;;;;6.68;0.98;;;3.90;99.90;;;;;;2622096;46;20959;31
2022/02/22 01:50:23;;;;;;;3.67;1.20;;;3.90;99.90;;;;;;2603601;54;20895;31
2022/02/22 01:52:59;;;;;;;5.85;1.45;;;3.90;99.90;;;;;;2603288;54;20061;31
2022/02/22 01:55:38;;;;;;;5.20;1.20;;;3.90;99.90;;;;;;2603486;54;20038;31
2022/02/22 01:58:14;;;;;;;7.38;1.52;;;3.90;99.90;;;;;;2603026;54;21405;31
2022/02/22 02:00:50;;;;;;;4.10;1.15;;;3.90;99.90;;;;;;2603287;54;20853;31
2022/02/22 02:03:26;;;;;;;4.20;1.25;;;3.80;99.90;;;;;;2621666;46;20117;31
2022/02/22 02:06:01;;;;;;;4.45;1.20;;;3.80;99.90;;;;;;2602724;54;21445;31
2022/02/22 02:08:36;;;;;;;5.90;1.00;;;3.80;99.90;;;;;;2603432;54;20600;31
2022/02/22 02:11:15;;;;;;;2.63;1.02;;;3.80;99.90;;;;;;2602973;54;20085;31
2022/02/22 02:13:53;;;;;;;5.07;1.15;;;3.80;99.90;;;;;;2621696;46;20026;31
2022/02/22 02:16:27;;;;;;;5.80;1.65;;;3.80;99.90;;;;;;2603518;54;20052;31
2022/02/22 02:19:01;;;;;;;3.30;0.95;;;3.90;99.90;;;;;;2603011;54;20226;31
2022/02/22 02:21:35;;;;;;;2.97;1.10;;;3.90;99.90;;;;;;2603248;54;20050;31
2022/02/22 02:24:29;;;;;;;4.50;1.83;;;3.80;99.90;;;;;;2603340;54;20057;31
2022/02/22 02:27:04;;;;;;;3.72;1.23;;;3.90;99.90;;;;;;2701685;39;20632;31
2022/02/22 02:29:38;;;;;;;7.75;1.70;;;3.90;99.90;;;;;;2603341;54;20036;31
2022/02/22 02:32:13;;;;;;;2.80;1.35;;;3.90;99.90;;;;;;2622028;46;20897;31
2022/02/22 02:34:47;;;;;;;5.00;1.77;;;3.80;99.90;;;;;;2773169;31;20605;31
2022/02/22 02:37:23;;;;;;;7.35;1.60;;;3.80;99.90;;;;;;2603202;54;20803;31
2022/02/22 02:40:01;;;;;;;3.80;1.50;;;3.80;99.90;;;;;;2701764;39;20501;31
2022/02/22 02:42:35;;;;;;;3.58;1.63;;;3.80;99.90;;;;;;2603230;54;20087;31
2022/02/22 02:45:11;;;;;;;8.45;2.53;;;3.80;99.90;;;;;;2603323;54;20073;31
2022/02/22 02:47:45;;;;;;;;;;;3.80;99.90;;;;;;2602716;54;20828;31
2022/02/22 02:50:20;;;;;;;6.30;1.90;;;3.80;99.90;;;;;;2603138;54;19954;31
2022/02/22 02:52:54;;;;;;;6.10;1.58;;;3.80;99.90;;;;;;2603143;54;20038;31
2022/02/22 02:55:31;;;;;;;5.78;1.77;;;3.80;99.90;;;;;;2604461;47;20056;31
2022/02/22 02:58:06;;;;;;;4.28;1.65;;;3.80;99.90;;;;;;2603209;54;20065;31
2022/02/22 03:00:41;;;;;;;7.83;1.30;;;3.80;99.90;;;;;;2603090;54;20026;31
2022/02/22 03:03:16;;;;;;;4.45;1.80;;;3.80;99.90;;;;;;2603390;54;20038;31
2022/02/22 03:05:50;;;;;;;9.93;1.75;;;3.80;99.90;;;;;;2603061;54;20032;31
2022/02/22 03:08:24;;;;;;;6.90;1.80;;;3.90;99.90;;;;;;2603166;54;20027;31
2022/02/22 03:11:00;;;;;;;5.93;1.65;;;3.80;99.90;;;;;;2603059;54;20254;31
2022/02/22 03:13:37;;;;;;;6.07;1.95;;;3.80;99.90;;;;;;2602933;54;20061;31
2022/02/22 03:16:12;;;;;;;7.05;1.88;;;3.80;99.90;;;;;;2603367;54;20046;31
2022/02/22 03:18:47;;;;;;;6.50;1.83;;;3.80;99.90;;;;;;2602297;54;20030;31
2022/02/22 03:21:22;;;;;;;4.45;1.45;;;3.80;99.90;;;;;;2602270;54;20046;31
2022/02/22 03:23:59;;;;;;;8.85;1.98;;;3.80;99.90;;;;;;2603388;54;20026;31
2022/02/22 03:26:37;;;;;;;10.40;1.88;;;3.80;99.90;;;;;;2603654;54;20046;31
2022/02/22 03:29:12;;;;;;;5.47;1.38;;;3.90;99.90;;;;;;2603697;54;20167;31
2022/02/22 03:31:47;;;;;;;10.55;2.10;;;3.90;99.90;;;;;;2603846;54;20037;31
2022/02/22 03:34:31;;;;;;;8.30;2.33;;;3.80;99.90;;;;;;2603920;54;20892;31
2022/02/22 03:37:10;;;;;;;11.25;1.60;;;3.80;99.90;;;;;;2622303;46;20844;31
2022/02/22 03:39:45;;;;;;;4.78;1.55;;;3.80;99.90;;;;;;2603857;54;20029;31
2022/02/22 03:42:22;;;;;;;5.45;1.80;;;3.80;99.90;;;;;;2603531;54;20807;31
2022/02/22 03:44:58;;;;;;;8.57;2.20;;;3.70;99.90;;;;;;2603871;54;20089;31
2022/02/22 03:47:35;;;;;;;6.15;1.15;;;3.70;99.90;;;;;;2603826;54;20305;31
2022/02/22 03:50:17;;;;;;;4.77;1.60;;;3.80;99.90;;;;;;2603679;54;20895;31
2022/02/22 03:52:55;;;;;;;11.38;1.75;;;3.80;99.90;;;;;;2603729;54;20805;31
2022/02/22 03:55:43;;;;;;;9.63;1.83;;;3.70;99.90;;;;;;2621909;46;20586;31
2022/02/22 03:58:18;;;;;;;8.40;1.30;;;3.80;99.90;;;;;;2603698;54;20056;31
2022/02/22 04:00:57;;;;;;;9.10;1.40;;;3.80;99.90;;;;;;2622133;46;20030;31
2022/02/22 04:03:31;;;;;;;5.03;1.08;;;3.80;99.90;;;;;;2604003;54;20066;31
2022/02/22 04:06:07;;;;;;;4.82;1.30;;;3.80;99.90;;;;;;2603791;54;20042;31
2022/02/22 04:08:43;;;;;;;9.48;1.45;;;3.80;99.90;;;;;;2603469;54;20026;31
2022/02/22 04:11:18;;;;;;;7.35;1.42;;;3.90;99.90;;;;;;2622513;46;20052;31
2022/02/22 04:13:55;;;;;;;6.60;1.52;;;3.90;99.90;;;;;;2603636;54;20031;31
2022/02/22 04:16:33;;;;;;;6.05;1.55;;;4.00;99.90;;;;;;2603582;54;20082;31
2022/02/22 04:19:08;;;;;;;6.50;1.80;;;3.90;99.90;;;;;;2603586;54;20057;31
2022/02/22 04:21:43;;;;;;;8.20;1.60;;;3.90;99.90;;;;;;2603684;54;20963;31
2022/02/22 04:24:21;;;;;;;7.38;1.30;;;4.00;99.90;;;;;;2603923;54;20057;31
2022/02/22 04:26:56;;;;;;;6.13;1.30;;;3.90;99.90;;;;;;2603095;54;20783;31
2022/02/22 04:29:32;;;;;;;7.05;1.10;;;3.90;99.90;;;;;;2602791;54;20026;31
2022/02/22 04:32:14;;;;;;;5.68;1.65;;;4.00;99.90;;;;;;2602924;54;20985;31
2022/02/22 04:34:49;;;;;;;7.83;1.30;;;3.90;99.90;;;;;;2603826;54;20201;31
2022/02/22 04:37:24;;;;;;;7.70;1.40;;;3.90;99.90;;;;;;2603800;54;20050;31
2022/02/22 04:40:01;;;;;;;7.18;2.13;;;3.90;99.90;;;;;;2603679;54;20842;31
2022/02/22 04:42:36;;;;;;;6.75;1.70;;;3.90;99.90;;;;;;2603758;54;20030;31
2022/02/22 04:45:17;;;;;;;8.40;1.90;;;3.90;99.90;;;;;;2603462;54;20026;31
2022/02/22 04:47:55;;;;;;;7.75;1.90;;;3.90;99.90;;;;;;2603582;54;20086;31
2022/02/22 04:50:34;;;;;;;5.75;2.33;;;4.00;99.90;;;;;;2603707;54;20906;31
2022/02/22 04:53:11;;;;;;;6.67;1.80;;;4.00;99.90;;;;;;2603513;54;20030;31
2022/02/22 04:55:47;;;;;;;5.90;1.90;;;4.00;99.90;;;;;;2622102;46;20242;31
2022/02/22 04:58:22;;;;;;;9.25;2.28;;;4.10;99.90;;;;;;2603800;54;20121;31
2022/02/22 05:00:58;;;;;;;7.20;2.20;;;4.00;99.90;;;;;;2604797;46;20026;31
2022/02/22 05:03:33;;;;;;;5.55;2.15;;;4.00;99.90;;;;;;2603777;54;20062;31
2022/02/22 05:06:09;;;;;;;7.43;2.67;;;4.00;99.90;;;;;;2603642;54;20995;31
2022/02/22 05:08:45;;;;;;;5.13;1.88;;;4.00;99.90;;;;;;2603770;54;20866;31
2022/02/22 05:11:21;;;;;;;7.90;2.45;;;4.00;99.90;;;;;;2603693;54;20042;31
2022/02/22 05:13:55;;;;;;;7.07;2.10;;;4.00;99.90;;;;;;2603642;54;20811;31
2022/02/22 05:16:30;;;;;;;2.67;1.57;;;4.00;99.90;;;;;;2603547;54;20031;31
2022/02/22 05:19:04;;;;;;;8.20;1.83;;;4.00;99.90;;;;;;2603602;54;20246;31
2022/02/22 05:21:43;;;;;;;5.95;1.95;;;4.00;99.90;;;;;;2603467;54;20031;31
2022/02/22 05:24:19;;;;;;;6.28;2.00;;;4.00;99.90;;;;;;2602812;54;20066;31
2022/02/22 05:26:54;;;;;;;6.05;2.10;;;4.00;99.90;;;;;;2603439;54;20030;31
2022/02/22 05:29:29;;;;;;;5.45;1.90;;;4.10;99.90;;;;;;2603472;54;20042;31
2022/02/22 05:32:03;;;;;;;5.70;1.85;;;4.00;99.90;;;;;;2603721;54;20770;31
2022/02/22 05:34:42;;;;;;;5.80;1.70;;;4.00;99.90;;;;;;2603524;54;20022;31
2022/02/22 05:37:16;;;;;;;3.38;1.40;;;4.00;99.90;;;;;;2603803;54;20035;31
2022/02/22 05:39:56;;;;;;;5.20;1.95;;;4.00;99.90;;;;;;2603404;54;20984;31
2022/02/22 05:42:31;;;;;;;7.30;2.83;;;4.10;99.90;;;;;;2603754;54;20042;31
2022/02/22 05:45:07;;;;;;;6.63;1.65;;;4.10;99.90;;;;;;2603231;54;20033;31
2022/02/22 05:47:41;;;;;;;;;;;4.10;99.90;;;;;;2603759;54;20573;31
2022/02/22 05:50:24;;;;;;;4.95;1.40;;;4.10;99.90;;;;;;2603618;54;20793;31
2022/02/22 05:53:07;;;;;;;6.15;1.58;;;4.10;99.90;;;;;;2603353;54;20879;31
2022/02/22 05:55:45;;;;;;;4.88;1.50;;;4.00;99.90;;;;;;2603755;54;20057;31
2022/02/22 05:58:21;;;;;;;3.90;1.65;;;4.10;99.90;;;;;;2621884;46;20030;31
2022/02/22 06:01:00;;;;;;;6.93;1.50;;;4.00;99.90;;;;;;2701845;39;20464;31
2022/02/22 06:03:38;;;;;;;4.95;1.50;;;4.10;99.90;;;;;;2603297;54;20037;31
2022/02/22 06:06:12;;;;;;;8.00;1.65;;;4.10;99.90;;;;;;2603629;54;20068;31
2022/02/22 06:08:50;;;;;;;7.80;1.75;;;4.20;99.90;;;;;;2603581;54;20049;31
2022/02/22 06:11:39;;;;;;;4.40;1.57;;;4.20;99.90;;;;;;2603580;54;20158;31
2022/02/22 06:14:14;;;;;;;6.00;1.45;;;4.20;99.90;;;;;;2621604;46;19934;31
2022/02/22 06:16:53;;;;;;;6.00;2.20;;;4.20;99.90;;;;;;2622081;46;20054;31
2022/02/22 06:26:17;;;;;;;6.20;1.80;;;4.30;99.90;;;;;;2602975;54;20030;31
2022/02/22 06:46:39;;;;;;;5.70;1.70;;;4.50;99.90;;;;;;2603162;54;20026;31
2022/02/22 06:49:17;;;;;;;12.15;1.55;;;4.50;99.90;;;;;;2603289;54;20038;31
2022/02/22 07:22:39;;;;;;;4.72;1.52;;;5.60;99.90;;;;;;2604089;54;20027;31
2022/02/22 07:25:16;;;;;;;3.03;1.40;;;5.80;99.90;;;;;;2622858;46;20107;31
2022/02/22 07:27:51;;;;;;;4.50;1.60;;;6.10;99.90;;;;;;2604050;54;20042;31
2022/02/22 07:30:26;;;;;;;4.95;1.30;;;6.60;99.90;;;;;;2622678;46;20042;31
2022/02/22 07:33:03;;;;;;;7.03;1.60;;;6.90;99.90;;;;;;2604094;54;20132;31
2022/02/22 07:35:39;;;;;;;9.23;1.75;;;6.90;99.90;;;;;;2622674;46;20871;31
2022/02/22 07:38:33;;;;;;;6.90;1.70;;;6.80;99.90;;;;;;2603659;54;20603;31
2022/02/22 07:41:08;;;;;;;2.10;0.77;;;6.60;99.90;;;;;;2622356;46;20072;31
2022/02/22 07:43:44;;;;;;;6.90;1.35;;;6.50;99.90;;;;;;2604042;54;20895;31
2022/02/22 07:46:20;;;;;;;;;;;6.30;99.90;;;;;;2604031;54;20687;31
2022/02/22 07:49:12;;;;;;;5.65;1.58;;;6.30;99.90;;;;;;2603942;54;20776;31
2022/02/22 07:51:46;;;;;;;4.63;1.20;;;6.10;99.90;;;;;;2603980;54;20112;31
2022/02/22 07:54:30;;;;;;;5.63;1.60;;;6.10;99.90;;;;;;2604023;54;20837;31
2022/02/22 07:57:29;;;;;;;6.10;1.38;;;6.10;99.90;;;;;;2603927;54;20877;31
2022/02/22 08:00:10;;;;;;;7.15;1.95;;;6.10;99.90;;;;;;2603586;54;20831;31
2022/02/22 08:02:44;;;;;;;5.25;1.42;;;6.00;99.90;;;;;;2603869;54;20057;31
2022/02/22 08:05:19;;;;;;;5.57;1.70;;;6.00;99.90;;;;;;2621966;46;20929;31
2022/02/22 08:07:56;;;;;;;7.88;1.60;;;6.00;99.90;;;;;;2622314;46;20895;31
2022/02/22 08:10:38;;;;;;;4.50;1.40;;;6.00;99.90;;;;;;2702335;39;20560;31
2022/02/22 08:13:11;;;;;;;5.50;1.80;;;6.00;99.90;;;;;;2702381;39;21043;31
2022/02/22 08:15:46;;;;;;;6.47;3.10;;;5.90;99.90;;;;;;2603683;54;20873;31
2022/02/22 08:18:23;;;;;;;3.83;1.75;;;6.00;99.90;;;;;;2603813;54;20791;31
2022/02/22 08:20:59;;;;;;;3.63;1.63;;;5.90;99.90;;;;;;2622337;46;20034;31
2022/02/22 08:23:36;;;;;;;5.05;1.80;;;6.00;99.90;;;;;;2603974;54;20034;31
2022/02/22 08:26:16;;;;;;;4.32;2.70;;;6.00;99.90;;;;;;2702128;39;20553;31
2022/02/22 08:28:51;;;;;;;10.05;4.45;;;6.00;99.90;;;;;;2621885;46;19985;31
2022/02/22 08:31:29;;;;;;;6.72;4.22;;;5.90;99.90;;;;;;2603677;54;20853;31
2022/02/22 08:34:08;;;;;;;3.40;1.40;;;5.90;99.90;;;;;;2622388;46;20132;31
2022/02/22 08:36:43;;;;;;;2.78;1.58;;;5.90;99.90;;;;;;2603637;54;20026;31
2022/02/22 08:39:22;;;;;;;4.88;1.35;;;5.80;99.90;;;;;;2603945;54;20027;31
2022/02/22 08:42:06;;;;;;;9.98;2.15;;;5.70;99.90;;;;;;2603582;54;20026;31
2022/02/22 08:44:42;;;;;;;5.20;1.58;;;5.70;99.90;;;;;;2603498;54;20031;31
2022/02/22 08:47:17;;;;;;;5.63;1.50;;;5.70;99.90;;;;;;2603546;54;20026;31
2022/02/22 08:49:53;;;;;;;8.98;2.05;;;5.60;99.90;;;;;;2603708;54;20864;31
2022/02/22 08:52:29;;;;;;;10.93;2.73;;;5.50;99.90;;;;;;2622213;46;20119;31
2022/02/22 08:55:11;;;;;;;11.47;2.53;;;5.50;99.90;;;;;;2603476;54;20048;31
2022/02/22 08:57:49;;;;;;;13.15;2.30;;;5.40;99.90;;;;;;2603826;54;21185;31
2022/02/22 09:00:25;;;;;;;15.00;2.63;;;5.40;99.90;;;;;;2622087;46;20088;31
2022/02/22 09:03:00;;;;;;;15.25;2.40;;;5.40;99.90;;;;;;2603027;54;20835;31
2022/02/22 09:05:40;;;;;;;10.80;2.30;;;5.40;99.90;;;;;;2603714;54;20030;31
2022/02/22 09:08:15;;;;;;;13.80;3.25;;;5.40;99.90;;;;;;2603555;54;20055;31
2022/02/22 09:10:58;;;;;;;;;;;5.40;99.90;;;;;;2603730;54;20023;31
2022/02/22 09:13:46;;;;;;;15.30;2.30;;;5.40;99.90;;;;;;2621973;46;19934;31
2022/02/22 09:16:24;;;;;;;15.55;2.28;;;5.40;99.90;;;;;;2603666;54;20026;31
2022/02/22 09:19:03;;;;;;;11.50;2.30;;;5.40;99.90;;;;;;2701824;39;20501;31
2022/02/22 09:21:40;;;;;;;12.47;2.47;;;5.40;99.90;;;;;;2603149;54;20176;31
2022/02/22 09:24:18;;;;;;;16.00;2.40;;;5.40;99.90;;;;;;2603749;46;20051;31
2022/02/22 09:26:56;;;;;;;10.75;2.83;;;5.40;99.90;;;;;;2702187;39;20515;31
2022/02/22 09:29:45;;;;;;;21.35;3.25;;;5.40;99.90;;;;;;2603593;54;19942;31
2022/02/22 09:32:23;;;;;;;16.08;3.00;;;5.40;99.90;;;;;;2622238;46;20858;31
2022/02/22 09:35:02;;;;;;;14.27;2.38;;;5.40;99.90;;;;;;2603599;54;20526;31
2022/02/22 09:37:40;;;;;;;17.15;2.17;;;5.40;99.90;;;;;;2603701;54;20046;31
2022/02/22 09:40:18;;;;;;;18.40;2.28;;;5.40;99.90;;;;;;2791641;31;20605;31
2022/02/22 09:42:56;;;;;;;16.58;2.70;;;5.40;99.90;;;;;;2621621;46;20031;31
2022/02/22 09:45:37;;;;;;;11.30;2.30;;;5.40;99.90;;;;;;2603462;54;20045;31
2022/02/22 09:48:15;;;;;;;10.20;2.00;;;5.50;99.90;;;;;;2603557;54;20113;31
2022/02/22 09:50:52;;;;;;;14.05;2.58;;;5.50;99.90;;;;;;2603391;54;20038;31
2022/02/22 09:53:29;;;;;;;15.68;3.17;;;5.60;99.90;;;;;;2603537;54;20158;31
2022/02/22 09:56:10;;;;;;;15.35;2.90;;;5.60;99.90;;;;;;2602620;54;20798;31
2022/02/22 09:58:48;;;;;;;11.85;2.20;;;5.60;99.90;;;;;;2603336;54;20125;31
2022/02/22 10:01:22;;;;;;;12.98;2.85;;;5.60;99.90;;;;;;2603307;54;19947;31
2022/02/22 10:04:04;;;;;;;;;;;5.60;99.90;;;;;;2603562;54;20923;31
2022/02/22 10:06:40;;;;;;;16.30;2.72;;;5.70;99.90;;;;;;2603476;54;20001;31
2022/02/22 10:09:20;;;;;;;10.05;2.35;;;5.90;99.90;;;;;;2603630;54;20581;31
2022/02/22 10:11:57;;;;;;;9.63;2.07;;;6.30;99.90;;;;;;2603231;54;20026;31
2022/02/22 10:14:32;;;;;;;;;;;6.80;99.90;;;;;;2603447;54;20092;31
2022/02/22 10:17:08;;;;;;;14.27;2.07;;;7.30;99.90;;;;;;2622012;46;20002;31
2022/02/22 10:19:58;;;;;;;16.35;3.10;;;7.60;99.90;;;;;;2603442;54;20077;31
2022/02/22 10:22:33;;;;;;;12.50;2.20;;;7.70;99.90;;;;;;2603260;54;20832;31
2022/02/22 10:25:09;;;;;;;19.40;2.50;;;7.70;99.90;;;;;;2603467;54;20037;31
2022/02/22 10:27:58;;;;;;;9.57;2.10;;;7.70;99.90;;;;;;2603322;54;20029;31
2022/02/22 10:30:54;;;;;;;11.00;2.27;;;7.70;99.90;;;;;;2602998;54;20053;31
2022/02/22 10:33:44;;;;;;;17.33;2.47;;;7.60;99.90;;;;;;2603498;54;21046;31
2022/02/22 10:36:51;;;;;;;13.73;3.50;;;7.50;99.90;;;;;;2603412;54;20026;31
2022/02/22 10:39:27;;;;;;;13.38;2.25;;;7.30;99.90;;;;;;2603139;54;20027;31
2022/02/22 10:42:02;;;;;;;11.63;2.05;;;7.20;99.90;;;;;;2603273;54;20030;31
2022/02/22 10:44:42;;;;;;;8.37;2.87;;;7.10;99.90;;;;;;2621731;46;20022;31
2022/02/22 10:47:20;;;;;;;13.40;2.20;;;7.00;99.90;;;;;;2603157;54;20255;31
2022/02/22 10:50:06;;;;;;;13.32;2.55;;;7.00;99.90;;;;;;2622025;46;20765;31
2022/02/22 10:52:45;;;;;;;11.63;1.75;;;7.20;99.90;;;;;;2603218;54;20569;31
2022/02/22 10:55:21;;;;;;;9.93;2.47;;;7.10;99.90;;;;;;2603465;54;20026;31
2022/02/22 10:57:58;;;;;;;10.98;1.30;;;7.00;99.90;;;;;;2602481;54;20850;31
2022/02/22 11:04:02;;;;;;;14.25;3.25;;;7.10;99.90;;;;;;2603016;54;20811;31
2022/02/22 11:06:37;;;;;;;11.97;1.53;;;7.10;99.90;;;;;;2701911;39;21018;31
2022/02/22 11:09:33;;;;;;;12.00;1.63;;;7.20;99.90;;;;;;2621465;47;20093;31
2022/02/22 11:12:25;;;;;;;9.85;1.73;;;7.40;99.90;;;;;;2603380;54;20549;31
2022/02/22 11:18:27;;;;;;;11.85;1.83;;;7.40;99.90;;;;;;2602879;54;21168;31
2022/02/22 11:21:13;;;;;;;16.20;2.70;;;7.30;99.90;;;;;;2621967;47;20545;31
2022/02/22 11:24:05;;;;;;;10.88;1.95;;;7.30;99.90;;;;;;2603144;54;20026;31
2022/02/22 11:35:22;;;;;;;13.45;2.65;;;7.40;99.90;;;;;;2602846;54;20113;31
2022/02/22 11:38:12;;;;;;;15.07;3.17;;;7.50;99.90;;;;;;2603212;54;20030;31
2022/02/22 11:40:53;;;;;;;11.35;2.60;;;7.50;99.90;;;;;;2602936;54;21107;31
2022/02/22 11:49:43;;;;;;;10.20;2.40;;;7.00;99.90;;;;;;2604086;54;20033;31
2022/02/22 11:52:20;;;;;;;12.10;1.80;;;6.80;99.90;;;;;;2603053;54;20979;31
2022/02/22 11:54:57;;;;;;;12.40;2.00;;;6.60;99.90;;;;;;2603039;54;20795;31
2022/02/22 11:58:20;;;;;;;8.70;1.88;;;6.30;99.90;;;;;;2603947;54;20026;31
2022/02/22 12:04:26;;;;;;;14.35;3.13;;;5.70;99.90;;;;;;2603893;54;20940;31
2022/02/22 12:13:44;;;;;;;10.82;2.45;;;5.70;99.90;;;;;;2603073;54;20600;31
2022/02/22 12:16:34;;;;;;;15.77;2.40;;;5.80;99.90;;;;;;2603617;54;20869;31
2022/02/22 12:19:27;;;;;;;16.55;3.78;;;6.00;99.90;;;;;;2603796;54;20034;31
2022/02/22 12:23:00;;;;;;;15.13;2.70;;;6.20;99.90;;;;;;2603754;54;20878;31
2022/02/22 12:25:45;;;;;;;16.50;2.70;;;6.40;99.90;;;;;;2603437;54;20885;31
2022/02/22 12:31:42;;;;;;;13.35;1.95;;;6.90;99.90;;;;;;2603741;54;20053;31
2022/02/22 12:37:55;;;;;;;13.05;2.33;;;7.10;99.90;;;;;;2603703;54;20917;31
2022/02/22 12:46:45;;;;;;;11.93;2.30;;;7.40;99.90;;;;;;2603646;54;20029;31
2022/02/22 12:50:27;;;;;;;10.50;1.70;;;7.40;99.90;;;;;;2603902;46;20868;31
2022/02/22 12:53:31;;;;;;;9.63;2.08;;;7.60;99.90;;;;;;2603854;54;20951;31
2022/02/22 12:56:14;;;;;;;9.23;2.30;;;7.60;99.90;;;;;;2603481;54;20030;31
2022/02/22 13:08:20;;;;;;;9.65;1.70;;;7.70;99.90;;;;;;2603661;54;20905;31
2022/02/22 13:14:07;;;;;;;10.65;1.50;;;7.70;99.90;;;;;;2603632;54;20865;31
2022/02/22 13:17:19;;;;;;;6.57;1.50;;;7.70;99.90;;;;;;2621901;46;20046;31
2022/02/22 13:30:33;;;;;;;8.00;1.70;;;7.60;99.90;;;;;;2603304;54;20905;31
2022/02/22 13:33:31;;;;;;;7.18;1.20;;;7.60;99.90;;;;;;2621855;46;20553;31
2022/02/22 13:42:23;;;;;;;11.75;2.00;;;7.50;99.90;;;;;;2603216;54;20077;31
2022/02/22 13:45:49;;;;;;;10.27;2.30;;;7.30;99.90;;;;;;2603512;54;20053;31
2022/02/22 13:48:31;;;;;;;12.43;2.60;;;7.20;99.90;;;;;;2773436;31;21672;31
2022/02/22 13:51:24;;;;;;;13.40;2.28;;;7.00;99.90;;;;;;2603713;54;20869;31
2022/02/22 13:54:06;;;;;;;7.63;2.05;;;6.90;99.90;;;;;;2603305;54;20910;31
2022/02/22 13:57:02;;;;;;;8.13;1.00;;;6.80;99.90;;;;;;2621927;46;20053;31
2022/02/22 14:02:37;;;;;;;4.72;1.08;;;6.50;99.90;;;;;;2602682;54;20251;31
2022/02/22 14:05:19;;;;;;;2.60;0.93;;;6.30;99.90;;;;;;2602380;54;21446;31
2022/02/22 14:07:56;;;;;;;4.75;1.00;;;6.20;99.90;;;;;;2602487;54;20847;31
2022/02/22 15:27:20;;;;;;;12.38;3.25;;;5.90;99.90;;;;;;2603753;54;20485;31
2022/02/22 15:50:30;;;;;;;9.82;3.30;;;5.50;99.90;;;;;;2622375;46;20031;31
2022/02/22 15:53:06;;;;;;;12.77;4.38;;;5.50;99.90;;;;;;2603767;54;20778;31
2022/02/22 15:55:41;;;;;;;10.90;3.83;;;5.40;99.90;;;;;;2603141;54;20034;31
2022/02/22 15:58:16;;;;;;;12.90;4.35;;;5.30;99.90;;;;;;2603501;54;20105;31
2022/02/22 16:00:54;;;;;;;17.10;4.40;;;5.30;99.90;;;;;;2603783;54;20121;31
2022/02/22 16:03:33;;;;;;;18.30;3.75;;;5.30;99.90;;;;;;2603871;54;20863;31
2022/02/22 16:06:10;;;;;;;10.82;3.80;;;5.20;99.90;;;;;;2622289;46;20031;31
2022/02/22 16:08:45;;;;;;;12.45;3.10;;;5.10;99.90;;;;;;2603914;54;20877;31
2022/02/22 16:11:20;;;;;;;12.75;4.15;;;5.10;99.90;;;;;;2603827;54;20033;31
2022/02/22 16:13:55;;;;;;;16.10;6.05;;;5.10;99.90;;;;;;2603901;54;20892;31
2022/02/22 16:16:31;;;;;;;17.77;6.07;;;5.00;99.90;;;;;;2603731;54;20145;31
2022/02/22 16:19:07;;;;;;;16.45;5.47;;;5.00;99.90;;;;;;2603943;54;20053;31
2022/02/22 16:21:44;;;;;;;22.80;6.05;;;5.00;99.90;;;;;;2603740;54;20050;31
2022/02/22 16:24:20;;;;;;;17.45;5.65;;;4.90;99.90;;;;;;2603764;54;20030;31
2022/02/22 16:26:54;;;;;;;11.90;3.60;;;4.90;99.90;;;;;;2720643;39;20560;31
2022/02/22 16:29:29;;;;;;;14.05;4.55;;;4.80;99.90;;;;;;2603079;54;20852;31
2022/02/22 16:32:14;;;;;;;14.15;5.30;;;4.80;99.90;;;;;;2603015;54;20952;31
2022/02/22 16:34:50;;;;;;;15.53;5.17;;;4.80;99.90;;;;;;2622319;46;20038;31
2022/02/22 16:37:28;;;;;;;16.90;5.77;;;4.80;99.90;;;;;;2702121;39;20584;31
2022/02/22 16:40:02;;;;;;;20.83;5.67;;;4.80;99.90;;;;;;2622098;46;20569;31
2022/02/22 16:52:14;;;;;;;;;;;;;;;;;;;;;
2022/02/22 17:16:27;;;;;;;16.02;3.95;;;4.80;99.90;;;;;;2603742;54;20795;31
2022/02/22 17:22:21;;;;;;;12.20;4.30;;;4.90;99.90;;;;;;2603814;54;20022;31
2022/02/22 17:42:33;;;;;;;12.50;5.05;;;4.90;99.90;;;;;;2600970;54;20014;31
2022/02/22 17:45:17;;;;;;;21.80;6.10;;;4.90;99.90;;;;;;2602617;54;20034;31
2022/02/22 18:25:41;;;;;;;21.27;7.20;;;4.60;99.90;;;;;;2701937;39;20612;31
2022/02/22 19:06:28;;;;;;;31.73;9.20;;;4.00;99.90;;;;;;2603137;47;20030;31
2022/02/22 19:09:06;;;;;;;23.63;7.68;;;3.90;99.90;;;;;;2603238;54;20137;31
2022/02/22 19:11:51;;;;;;;26.55;8.73;;;3.90;99.90;;;;;;2603053;54;20836;31
2022/02/22 20:04:02;;;;;;;27.40;7.40;;;3.70;99.90;;;;;;2602791;54;20027;31
2022/02/22 20:07:05;;;;;;;21.85;7.25;;;3.80;99.90;;;;;;2603969;54;20914;31
2022/02/22 20:18:32;;;;;;;28.70;6.75;;;3.90;99.90;;;;;;2603052;54;20787;31
2022/02/22 20:27:39;;;;;;;17.95;6.88;;;4.00;99.90;;;;;;2603833;54;19941;31
2022/02/22 20:30:23;;;;;;;21.17;6.50;;;4.00;99.90;;;;;;2603617;54;20875;31
2022/02/22 20:33:18;;;;;;;21.95;5.78;;;4.00;99.90;;;;;;2603494;54;21069;31
2022/02/22 20:39:08;;;;;;;24.70;5.57;;;4.10;99.90;;;;;;2603862;54;20026;31
2022/02/22 20:57:04;;;;;;;18.58;7.07;;;4.20;99.90;;;;;;2702410;39;20990;31
2022/02/22 21:02:19;;;;;;;21.10;6.90;;;4.20;99.90;;;;;;2603734;54;20839;31
2022/02/22 21:12:37;;;;;;;23.92;7.85;;;4.30;99.90;;;;;;2603492;54;20049;31
2022/02/22 21:19:02;;;;;;;23.45;7.15;;;4.30;99.90;;;;;;2603771;54;20608;31
2022/02/22 21:22:02;;;;;;;26.73;6.60;;;4.30;99.90;;;;;;2603189;54;20077;31
2022/02/22 21:34:08;;;;;;;22.38;6.72;;;4.30;99.90;;;;;;2622328;46;20030;31
2022/02/22 21:42:51;;;;;;;19.00;6.75;;;4.30;99.90;;;;;;2603638;54;20023;31
2022/02/22 21:51:44;;;;;;;20.55;7.28;;;4.30;99.90;;;;;;2603844;54;20869;31
2022/02/22 21:54:22;;;;;;;19.80;6.27;;;4.40;99.90;;;;;;2621879;46;20092;31
2022/02/22 21:57:26;;;;;;;19.95;6.25;;;4.40;99.90;;;;;;2603452;54;21075;31
2022/02/22 22:00:04;;;;;;;23.98;6.90;;;4.40;99.90;;;;;;2603369;54;20029;31
2022/02/22 22:02:45;;;;;;;23.90;7.35;;;4.40;99.90;;;;;;2603465;54;20027;31
2022/02/22 22:05:23;;;;;;;25.50;8.00;;;4.50;99.90;;;;;;2621974;46;20050;31